Main page
METAR-TAF:

METAR-TAF

Airports :

Ilorin, Nigeria

Ilorin International Airport

latitude: 08-29N, longitude: 004-35E, elevation: 308 m

METAR: missing

Time: 16:09 (15:09 UTC)

Forecast

The report was made 5 hours and 29 minutes ago, at 09:40 UTC
Forecast valid from 19 at 12 UTC to 20 at 18 UTC
Wind 3 kt from the Southwest
Visibility 10 km or more
Broken clouds at a height of 1000 ft
Temporary
from 19 at 15 UTC to 19 at 20 UTC
Wind 10 kt from the Northeast with gusts up to 20 kt
Visibility: 5000 m
Broken clouds at a height of 700 ft
Few clouds at a height of 1900 ft, Cumulonimbus.
thunderstorm, light rain
Becoming
from 19 at 20 UTC to 19 at 22 UTC
Wind 5 kt from the South/Southeast
Few clouds at a height of 800 ft

TAF: DNIL 190940Z 1912/2018 22003KT 9999 BKN010 TEMPO 1915/1920 05010G20KT 5000 -TSRA BKN007 FEW019CB BECMG 1920/1922 15005KT FEW008

Weather observations and forecasts of more than 4000 airports (METAR and TAF reports).

The available stations are represented by yellow and red dots on the map.

Hover mouse over dot to see the name of the station.

Then click to see weather observations and forecasts.

To change the map : click on the green buttons with a black cross to zoom in, on the green button with a dash to zoom out, or on the green arrows for adjacent maps.


METAR-TAF: